createdAt,value
2018-06-17T00:04:01.791Z,87.90
2018-06-17T00:08:06.011Z,87.90
2018-06-17T00:12:09.818Z,87.70
2018-06-17T00:16:14.350Z,87.90
2018-06-17T00:24:21.576Z,87.70
2018-06-17T00:28:25.211Z,87.70
2018-06-17T00:32:28.854Z,88.20
2018-06-17T00:36:32.358Z,88.00
2018-06-17T00:40:36.151Z,87.90
2018-06-17T00:44:40.204Z,87.80
2018-06-17T00:48:45.251Z,87.60
2018-06-17T00:52:49.535Z,87.80
2018-06-17T00:57:04.577Z,87.50
2018-06-17T01:01:08.098Z,86.70
2018-06-17T01:05:13.271Z,86.90
2018-06-17T01:09:17.434Z,86.80
2018-06-17T01:13:22.310Z,87.20
2018-06-17T01:17:26.051Z,87.20
2018-06-17T01:21:29.614Z,86.90
2018-06-17T01:25:33.090Z,86.60
2018-06-17T01:29:36.641Z,87.50
2018-06-17T01:33:40.314Z,87.30
2018-06-17T01:37:44.394Z,86.80
2018-06-17T01:41:48.163Z,87.60
2018-06-17T01:45:52.846Z,86.40
2018-06-17T01:49:56.376Z,86.60
2018-06-17T01:54:00.113Z,85.90
2018-06-17T01:58:03.570Z,86.10
2018-06-17T02:02:07.794Z,85.40
2018-06-17T02:06:16.674Z,86.30
2018-06-17T02:10:25.674Z,86.30
2018-06-17T02:14:34.445Z,87.00
2018-06-17T02:18:38.481Z,86.90
2018-06-17T02:22:43.005Z,86.30
2018-06-17T02:26:47.454Z,86.40
2018-06-17T02:30:51.123Z,85.80
2018-06-17T02:38:59.875Z,86.60
2018-06-17T02:43:03.678Z,86.30
2018-06-17T02:47:12.680Z,85.90
2018-06-17T02:51:22.023Z,86.90
2018-06-17T02:55:26.143Z,86.60
2018-06-17T02:59:29.739Z,86.40
2018-06-17T03:03:33.382Z,86.20
2018-06-17T03:11:45.932Z,86.00
2018-06-17T03:15:49.767Z,86.90
2018-06-17T03:19:53.478Z,86.60
2018-06-17T03:24:02.900Z,86.90
2018-06-17T03:28:11.786Z,86.00
2018-06-17T03:32:21.026Z,86.30
2018-06-17T03:36:24.711Z,86.50
2018-06-17T03:40:28.415Z,86.70
2018-06-17T03:44:38.791Z,86.10
2018-06-17T03:48:42.720Z,86.60
2018-06-17T03:52:46.506Z,86.00
2018-06-17T03:56:50.278Z,85.80
2018-06-17T04:01:04.885Z,86.00
2018-06-17T04:05:13.767Z,86.10
2018-06-17T04:09:17.522Z,85.50
2018-06-17T04:13:21.238Z,85.00
2018-06-17T04:17:24.727Z,85.60
2018-06-17T04:21:28.542Z,85.30
2018-06-17T04:25:32.040Z,85.00
2018-06-17T04:29:35.774Z,85.70
2018-06-17T04:33:39.674Z,85.60
2018-06-17T04:37:43.807Z,85.30
2018-06-17T04:41:47.540Z,84.90
2018-06-17T04:45:51.402Z,85.40
2018-06-17T04:49:55.093Z,84.60
2018-06-17T04:54:04.542Z,84.40
2018-06-17T04:58:08.536Z,84.10
2018-06-17T05:02:12.306Z,83.20
2018-06-17T05:06:16.156Z,83.90
2018-06-17T05:10:20.307Z,82.50
2018-06-17T05:14:24.098Z,83.10
2018-06-17T05:18:27.764Z,81.80
2018-06-17T05:22:31.297Z,81.00
2018-06-17T05:26:35.208Z,81.10
2018-06-17T05:30:38.969Z,80.00
2018-06-17T05:34:42.698Z,80.50
2018-06-17T05:38:46.703Z,81.00
2018-06-17T05:42:50.675Z,80.80
2018-06-17T05:46:54.607Z,80.70
2018-06-17T05:50:58.115Z,80.40
2018-06-17T05:55:02.575Z,79.20
2018-06-17T05:59:06.344Z,78.90
2018-06-17T06:03:09.878Z,78.80
2018-06-17T06:11:17.262Z,74.10
2018-06-17T06:15:21.775Z,72.20
2018-06-17T06:19:25.609Z,68.50
2018-06-17T06:23:35.827Z,71.40
2018-06-17T06:27:39.623Z,65.50
2018-06-17T06:31:43.362Z,62.20
2018-06-17T06:35:48.074Z,63.80
2018-06-17T06:39:51.753Z,63.40
2018-06-17T06:43:56.663Z,63.00
2018-06-17T06:48:00.224Z,63.20
2018-06-17T06:52:04.142Z,63.10
2018-06-17T06:56:07.879Z,60.50
2018-06-17T07:00:11.883Z,61.70
2018-06-17T07:04:26.680Z,61.20
2018-06-17T07:08:41.508Z,61.70
2018-06-17T07:12:45.848Z,63.70
2018-06-17T07:17:01.003Z,61.00
2018-06-17T07:21:06.332Z,58.30
2018-06-17T07:25:28.222Z,58.60
2018-06-17T07:29:43.109Z,60.80
2018-06-17T07:34:06.531Z,57.10
2018-06-17T07:38:11.708Z,58.00
2018-06-17T07:42:15.952Z,62.10
2018-06-17T07:46:20.981Z,60.20
2018-06-17T07:50:40.511Z,60.10
2018-06-17T07:54:46.163Z,60.30
2018-06-17T07:59:03.555Z,61.80
2018-06-17T08:11:30.023Z,59.90
2018-06-17T08:15:33.894Z,58.40
2018-06-17T08:19:39.897Z,59.20
2018-06-17T08:23:44.678Z,55.90
2018-06-17T08:28:00.586Z,58.10
2018-06-17T08:32:05.143Z,56.00
2018-06-17T08:36:21.686Z,61.20
2018-06-17T08:40:25.264Z,59.50
2018-06-17T08:44:32.272Z,59.70
2018-06-17T08:48:36.348Z,56.80
2018-06-17T08:52:39.982Z,56.50
2018-06-17T08:56:43.916Z,52.30
2018-06-17T09:00:50.074Z,50.40
2018-06-17T09:04:53.904Z,55.30
2018-06-17T09:08:57.956Z,51.40
2018-06-17T09:13:02.681Z,50.20
2018-06-17T09:17:06.339Z,51.90
2018-06-17T09:25:13.600Z,51.20
2018-06-17T09:29:17.611Z,54.10
2018-06-17T09:33:21.226Z,54.20
2018-06-17T09:37:24.844Z,55.90
2018-06-17T09:41:28.621Z,56.20
2018-06-17T09:45:32.236Z,59.50
2018-06-17T09:49:36.452Z,57.90
2018-06-17T09:53:40.098Z,57.00
2018-06-17T09:57:43.798Z,62.40
2018-06-17T10:01:47.653Z,60.70
2018-06-17T10:11:13.050Z,56.80
2018-06-17T10:15:16.646Z,56.80
2018-06-17T10:19:23.622Z,57.90
2018-06-17T10:23:27.209Z,59.30
2018-06-17T10:27:32.136Z,58.50
2018-06-17T10:31:35.713Z,56.70
2018-06-17T10:35:39.952Z,56.50
2018-06-17T10:39:43.717Z,57.40
2018-06-17T10:43:47.622Z,58.00
2018-06-17T10:47:53.185Z,58.30
2018-06-17T10:51:56.706Z,58.30
2018-06-17T10:56:00.303Z,56.10
2018-06-17T11:00:04.830Z,55.30
2018-06-17T11:04:09.393Z,57.80
2018-06-17T11:08:14.625Z,58.50
2018-06-17T11:16:21.455Z,60.60
2018-06-17T11:20:27.145Z,56.70
2018-06-17T11:24:32.688Z,58.60
2018-06-17T11:28:37.070Z,60.80
2018-06-17T11:32:45.850Z,58.40
2018-06-17T11:36:49.964Z,57.20
2018-06-17T11:40:57.643Z,58.90
2018-06-17T11:45:05.322Z,60.70
2018-06-17T11:49:09.311Z,61.50
2018-06-17T11:53:15.113Z,54.40
2018-06-17T11:57:20.574Z,58.70
2018-06-17T12:01:24.254Z,57.20
2018-06-17T12:05:33.199Z,58.50
2018-06-17T12:13:48.366Z,60.10
2018-06-17T12:17:53.315Z,59.80
2018-06-17T12:21:57.025Z,62.30
2018-06-17T12:26:03.117Z,58.80
2018-06-17T12:30:06.946Z,62.10
2018-06-17T12:34:10.539Z,58.20
2018-06-17T12:38:18.698Z,58.10
2018-06-17T12:42:24.293Z,56.70
2018-06-17T12:46:29.796Z,56.70
2018-06-17T12:50:33.393Z,60.30
2018-06-17T12:54:43.222Z,62.80
2018-06-17T12:58:46.993Z,62.00
2018-06-17T13:02:52.518Z,59.00
2018-06-17T13:10:59.947Z,61.70
2018-06-17T13:15:03.628Z,59.70
2018-06-17T13:19:07.527Z,58.00
2018-06-17T13:23:12.983Z,59.00
2018-06-17T13:27:16.927Z,60.80
2018-06-17T13:31:20.670Z,59.50
2018-06-17T13:35:24.482Z,61.60
2018-06-17T13:39:28.120Z,62.50
2018-06-17T13:43:33.758Z,61.30
2018-06-17T13:47:38.324Z,62.40
2018-06-17T13:51:46.829Z,62.10
2018-06-17T13:55:50.590Z,60.90
2018-06-17T13:59:54.481Z,60.10
2018-06-17T14:03:59.094Z,60.90
2018-06-17T14:08:04.966Z,58.10
2018-06-17T14:12:08.659Z,59.50
2018-06-17T14:16:12.428Z,59.80
2018-06-17T14:20:16.343Z,59.10
2018-06-17T14:24:31.986Z,59.90
2018-06-17T14:28:37.061Z,58.70
2018-06-17T14:32:45.201Z,66.50
2018-06-17T14:36:52.282Z,66.60
2018-06-17T14:41:01.273Z,67.20
2018-06-17T14:45:10.573Z,68.40
2018-06-17T14:49:20.024Z,64.50
2018-06-17T14:53:23.681Z,67.80
2018-06-17T14:57:45.221Z,65.20
2018-06-17T15:01:48.865Z,64.80
2018-06-17T15:05:52.591Z,68.50
2018-06-17T15:10:01.815Z,67.30
2018-06-17T15:14:15.745Z,66.80
2018-06-17T15:18:20.445Z,67.10
2018-06-17T15:22:27.741Z,67.70
2018-06-17T15:26:31.456Z,69.60
2018-06-17T15:34:43.837Z,70.20
2018-06-17T15:38:55.530Z,70.40
2018-06-17T15:42:59.107Z,69.40
2018-06-17T15:51:06.493Z,70.30
2018-06-17T15:55:10.534Z,70.20
2018-06-17T15:59:18.026Z,70.80
2018-06-17T16:03:21.569Z,71.00
2018-06-17T16:07:27.145Z,68.40
2018-06-17T16:11:31.047Z,70.10
2018-06-17T16:15:40.019Z,69.80
2018-06-17T16:19:52.662Z,70.30
2018-06-17T16:23:56.217Z,68.20
2018-06-17T16:27:59.823Z,70.20
2018-06-17T16:36:08.211Z,68.60
2018-06-17T16:40:11.941Z,69.00
2018-06-17T16:44:16.018Z,68.30
2018-06-17T16:48:19.988Z,70.20
2018-06-17T16:52:29.053Z,69.10
2018-06-17T16:57:36.736Z,71.40
2018-06-17T17:01:40.252Z,70.50
2018-06-17T17:05:44.360Z,68.60
2018-06-17T17:09:48.371Z,70.50
2018-06-17T17:13:53.016Z,69.70
2018-06-17T17:17:56.762Z,70.20
2018-06-17T17:22:00.590Z,70.20
2018-06-17T17:26:09.593Z,70.10
2018-06-17T17:30:13.736Z,71.20
2018-06-17T17:34:24.996Z,71.10
2018-06-17T17:38:39.297Z,70.60
2018-06-17T17:42:43.414Z,70.80
2018-06-17T17:46:54.528Z,69.50
2018-06-17T17:51:04.684Z,70.80
2018-06-17T17:55:09.401Z,72.50
2018-06-17T17:59:13.955Z,71.70
2018-06-17T18:03:17.864Z,69.50
2018-06-17T18:07:21.560Z,71.00
2018-06-17T18:11:25.285Z,66.50
2018-06-17T18:15:31.097Z,71.90
2018-06-17T18:19:34.997Z,69.30
2018-06-17T18:23:38.763Z,70.90
2018-06-17T18:27:49.896Z,70.80
2018-06-17T18:32:08.718Z,69.70
2018-06-17T18:36:17.702Z,68.60
2018-06-17T18:40:21.635Z,69.90
2018-06-17T18:44:25.430Z,67.90
2018-06-17T18:48:35.267Z,67.80
2018-06-17T18:52:38.974Z,70.50
2018-06-17T18:56:42.834Z,69.60
2018-06-17T19:00:47.305Z,66.40
2018-06-17T19:04:54.328Z,68.50
2018-06-17T19:09:03.582Z,67.70
2018-06-17T19:13:12.927Z,66.50
2018-06-17T19:17:22.754Z,68.50
2018-06-17T19:21:27.424Z,71.30
2018-06-17T19:25:32.128Z,66.10
2018-06-17T19:29:38.146Z,68.80
2018-06-17T19:33:42.418Z,66.10
2018-06-17T19:37:46.452Z,65.40
2018-06-17T19:41:50.289Z,67.00
2018-06-17T19:45:53.864Z,66.70
2018-06-17T19:50:03.089Z,67.00
2018-06-17T19:54:12.325Z,67.90
2018-06-17T19:58:21.757Z,69.00
2018-06-17T20:02:26.211Z,68.60
2018-06-17T20:06:36.302Z,68.60
2018-06-17T20:10:39.963Z,68.10
2018-06-17T20:14:45.148Z,68.60
2018-06-17T20:18:48.933Z,70.20
2018-06-17T20:22:53.367Z,69.10
2018-06-17T20:26:57.148Z,69.40
2018-06-17T20:31:07.302Z,70.20
2018-06-17T20:35:19.015Z,70.70
2018-06-17T20:39:30.083Z,70.90
2018-06-17T20:43:38.799Z,71.90
2018-06-17T20:47:42.844Z,72.40
2018-06-17T20:51:46.606Z,72.10
2018-06-17T20:55:51.184Z,72.70
2018-06-17T20:59:58.168Z,72.10
2018-06-17T21:04:02.786Z,72.10
2018-06-17T21:08:06.367Z,72.60
2018-06-17T21:12:10.984Z,73.60
2018-06-17T21:16:14.966Z,73.30
2018-06-17T21:20:24.231Z,72.70
2018-06-17T21:24:33.468Z,72.30
2018-06-17T21:28:42.311Z,71.60
2018-06-17T21:32:46.381Z,72.10
2018-06-17T21:36:52.542Z,72.50
2018-06-17T21:40:56.164Z,72.50
2018-06-17T21:45:02.834Z,73.00
2018-06-17T21:49:06.464Z,74.20
2018-06-17T21:53:11.076Z,73.50
2018-06-17T21:57:16.922Z,73.10
2018-06-17T22:01:21.187Z,75.90
2018-06-17T22:05:29.216Z,73.10
2018-06-17T22:09:38.091Z,74.00
2018-06-17T22:13:51.900Z,74.90
2018-06-17T22:17:55.987Z,75.90
2018-06-17T22:21:59.652Z,73.30
2018-06-17T22:26:03.427Z,73.30
2018-06-17T22:30:06.975Z,74.40
2018-06-17T22:34:10.706Z,75.00
2018-06-17T22:38:16.843Z,75.50
2018-06-17T22:42:20.757Z,75.40
2018-06-17T22:46:34.424Z,75.30
2018-06-17T22:50:37.940Z,75.40
2018-06-17T22:54:49.364Z,75.50
2018-06-17T22:58:58.782Z,75.90
2018-06-17T23:03:07.783Z,76.70
2018-06-17T23:07:16.683Z,76.60
2018-06-17T23:11:20.505Z,77.10
2018-06-17T23:15:24.043Z,77.40
2018-06-17T23:19:27.531Z,78.00
2018-06-17T23:23:36.979Z,78.00
2018-06-17T23:27:40.683Z,77.70
2018-06-17T23:31:44.876Z,77.40
2018-06-17T23:35:48.646Z,77.80
2018-06-17T23:44:07.175Z,77.70
2018-06-17T23:48:16.562Z,78.00
2018-06-17T23:52:25.378Z,78.30
2018-06-17T23:56:33.596Z,78.40
